createdAt,value
2022-10-14T00:00:06.831Z,49.10
2022-10-14T00:01:06.835Z,53.90
2022-10-14T00:02:06.798Z,53.70
2022-10-14T00:03:06.727Z,42.90
2022-10-14T00:04:06.730Z,45.30
2022-10-14T00:05:06.722Z,40.40
2022-10-14T00:06:06.709Z,51.00
2022-10-14T00:07:06.748Z,46.90
2022-10-14T00:08:06.667Z,50.40
2022-10-14T00:09:06.640Z,40.80
2022-10-14T00:10:06.672Z,43.60
2022-10-14T00:11:06.684Z,46.00
2022-10-14T00:12:06.630Z,45.40
2022-10-14T00:13:06.616Z,46.50
2022-10-14T00:14:06.660Z,46.00
2022-10-14T00:15:06.645Z,40.80
2022-10-14T00:16:06.604Z,49.30
2022-10-14T00:17:06.576Z,43.80
2022-10-14T00:18:06.565Z,41.20
2022-10-14T00:19:06.561Z,41.80
2022-10-14T00:20:06.598Z,42.70
2022-10-14T00:21:06.601Z,45.30
2022-10-14T00:22:06.537Z,39.10
2022-10-14T00:23:06.568Z,50.40
2022-10-14T00:24:06.497Z,41.00
2022-10-14T00:25:06.482Z,43.30
2022-10-14T00:26:06.504Z,43.30
2022-10-14T00:27:06.452Z,52.80
2022-10-14T00:28:06.466Z,48.40
2022-10-14T00:29:06.480Z,42.50
2022-10-14T00:30:06.568Z,58.20
2022-10-14T00:31:06.455Z,52.90
2022-10-14T00:32:06.405Z,41.70
2022-10-14T00:33:06.397Z,48.70
2022-10-14T00:34:06.389Z,52.70
2022-10-14T00:35:06.437Z,46.10
2022-10-14T00:36:06.384Z,44.70
2022-10-14T00:37:06.350Z,54.60
2022-10-14T00:38:06.333Z,52.50
2022-10-14T00:39:06.343Z,57.20
2022-10-14T00:40:06.340Z,62.30
2022-10-14T00:41:06.330Z,61.90
2022-10-14T00:42:06.342Z,58.90
2022-10-14T00:43:06.267Z,57.00
2022-10-14T00:44:06.275Z,64.80
2022-10-14T00:45:06.298Z,73.60
2022-10-14T00:46:06.322Z,69.80
2022-10-14T00:47:06.275Z,63.10
2022-10-14T00:48:06.213Z,67.70
2022-10-14T00:49:06.204Z,61.60
2022-10-14T00:50:06.228Z,67.90
2022-10-14T00:51:06.186Z,70.20
2022-10-14T00:52:06.182Z,65.00
2022-10-14T00:53:06.172Z,52.90
2022-10-14T00:54:06.154Z,64.30
2022-10-14T00:55:06.179Z,63.40
2022-10-14T00:56:06.143Z,61.60
2022-10-14T00:57:06.113Z,69.70
2022-10-14T00:58:06.125Z,59.90
2022-10-14T00:59:06.091Z,56.20
2022-10-14T01:00:06.097Z,60.70
2022-10-14T01:01:06.111Z,62.30
2022-10-14T01:02:06.056Z,63.90
2022-10-14T01:03:06.051Z,59.50
2022-10-14T01:04:06.037Z,57.70
2022-10-14T01:05:06.047Z,61.50
2022-10-14T01:06:06.011Z,58.20
2022-10-14T01:07:06.006Z,58.60
2022-10-14T01:08:05.978Z,62.60
2022-10-14T01:09:05.986Z,59.50
2022-10-14T01:10:05.986Z,54.90
2022-10-14T01:11:05.980Z,55.70
2022-10-14T01:12:27.446Z,58.40
2022-10-14T01:13:05.958Z,58.50
2022-10-14T01:14:05.919Z,53.90
2022-10-14T01:15:05.934Z,56.10
2022-10-14T01:16:05.898Z,53.30
2022-10-14T01:17:05.893Z,53.60
2022-10-14T01:18:05.892Z,52.50
2022-10-14T01:19:05.876Z,54.00
2022-10-14T01:20:05.877Z,56.00
2022-10-14T01:21:05.868Z,57.60
2022-10-14T01:22:05.845Z,52.90
2022-10-14T01:23:05.830Z,55.70
2022-10-14T01:24:05.814Z,52.90
2022-10-14T01:25:05.814Z,53.30
2022-10-14T01:26:05.780Z,52.70
2022-10-14T01:27:05.778Z,56.30
2022-10-14T01:28:05.767Z,53.60
2022-10-14T01:29:05.756Z,54.50
2022-10-14T01:30:05.761Z,51.40
2022-10-14T01:31:05.733Z,53.20
2022-10-14T01:32:05.713Z,55.60
2022-10-14T01:33:05.709Z,56.20
2022-10-14T01:34:05.692Z,55.50
2022-10-14T01:35:05.722Z,52.20
2022-10-14T01:36:05.668Z,57.20
2022-10-14T01:37:05.660Z,55.90
2022-10-14T01:38:05.651Z,56.90
2022-10-14T01:39:05.636Z,57.90
2022-10-14T01:40:05.648Z,52.30
2022-10-14T01:41:05.606Z,56.00
2022-10-14T01:42:05.603Z,52.90
2022-10-14T01:43:05.612Z,52.00
2022-10-14T01:44:05.582Z,53.90
2022-10-14T01:45:05.594Z,53.70
2022-10-14T01:46:05.559Z,55.50
2022-10-14T01:47:05.557Z,55.40
2022-10-14T01:48:05.536Z,57.30
2022-10-14T01:49:05.528Z,56.80
2022-10-14T01:50:05.537Z,56.30
2022-10-14T01:51:05.504Z,54.90
2022-10-14T01:52:05.477Z,51.60
2022-10-14T01:53:05.480Z,53.30
2022-10-14T01:54:05.473Z,54.50
2022-10-14T01:55:05.476Z,57.50
2022-10-14T01:56:05.465Z,56.10
2022-10-14T01:57:05.443Z,56.60
2022-10-14T01:58:05.428Z,53.90
2022-10-14T01:59:05.399Z,51.50
2022-10-14T02:00:05.433Z,55.50
2022-10-14T02:01:05.385Z,52.30
2022-10-14T02:02:05.473Z,54.40
2022-10-14T02:03:05.374Z,49.10
2022-10-14T02:04:05.358Z,64.00
2022-10-14T02:05:05.361Z,53.60
2022-10-14T02:06:05.361Z,55.30
2022-10-14T02:07:05.346Z,50.80
2022-10-14T02:08:05.314Z,59.00
2022-10-14T02:09:05.298Z,61.60
2022-10-14T02:10:05.308Z,55.60
2022-10-14T02:11:05.297Z,58.70
2022-10-14T02:12:05.278Z,52.70
2022-10-14T02:13:05.285Z,51.10
2022-10-14T02:14:05.248Z,63.20
2022-10-14T02:15:05.251Z,60.10
2022-10-14T02:16:05.225Z,66.80
2022-10-14T02:17:05.214Z,59.00
2022-10-14T02:18:05.199Z,64.00
2022-10-14T02:19:05.194Z,59.80
2022-10-14T02:20:05.225Z,61.10
2022-10-14T02:21:05.164Z,60.00
2022-10-14T02:22:05.157Z,58.60
2022-10-14T02:23:05.141Z,71.30
2022-10-14T02:24:05.136Z,59.20
2022-10-14T02:25:05.140Z,55.50
2022-10-14T02:26:05.117Z,58.60
2022-10-14T02:27:05.093Z,72.10
2022-10-14T02:28:05.090Z,74.80
2022-10-14T02:29:05.084Z,61.00
2022-10-14T02:30:05.112Z,62.40
2022-10-14T02:31:05.046Z,57.30
2022-10-14T02:32:05.046Z,64.80
2022-10-14T02:33:05.028Z,60.90
2022-10-14T02:34:05.034Z,83.40
2022-10-14T02:35:05.025Z,60.80
2022-10-14T02:36:04.997Z,60.50
2022-10-14T02:37:05.004Z,69.20
2022-10-14T02:38:04.990Z,66.30
2022-10-14T02:39:04.969Z,56.70
2022-10-14T02:40:05.007Z,59.80
2022-10-14T02:41:04.949Z,78.10
2022-10-14T02:42:04.926Z,67.80
2022-10-14T02:43:04.919Z,58.80
2022-10-14T02:44:04.901Z,57.70
2022-10-14T02:45:04.910Z,60.10
2022-10-14T02:46:04.910Z,64.40
2022-10-14T02:47:04.874Z,71.30
2022-10-14T02:48:04.868Z,62.90
2022-10-14T02:49:04.849Z,63.90
2022-10-14T02:50:04.857Z,63.00
2022-10-14T02:51:04.825Z,60.20
2022-10-14T02:52:04.815Z,55.60
2022-10-14T02:53:04.809Z,60.90
2022-10-14T02:54:04.793Z,55.70
2022-10-14T02:55:04.815Z,70.20
2022-10-14T02:56:04.765Z,60.60
2022-10-14T02:57:04.777Z,61.60
2022-10-14T02:58:04.752Z,55.40
2022-10-14T02:59:04.742Z,61.40
2022-10-14T03:00:04.754Z,55.00
2022-10-14T03:01:04.720Z,59.60
2022-10-14T03:02:04.753Z,61.20
2022-10-14T03:03:04.693Z,60.00
2022-10-14T03:04:04.680Z,70.70
2022-10-14T03:05:04.694Z,59.60
2022-10-14T03:06:04.659Z,62.10
2022-10-14T03:07:04.654Z,58.30
2022-10-14T03:08:04.658Z,79.80
2022-10-14T03:09:04.623Z,65.00
2022-10-14T03:10:04.707Z,66.30
2022-10-14T03:11:04.602Z,55.60
2022-10-14T03:12:04.588Z,57.50
2022-10-14T03:13:04.594Z,48.70
2022-10-14T03:14:04.572Z,52.10
2022-10-14T03:15:04.582Z,61.00
2022-10-14T03:16:04.577Z,59.80
2022-10-14T03:17:04.536Z,78.20
2022-10-14T03:18:04.524Z,78.50
2022-10-14T03:19:04.518Z,74.10
2022-10-14T03:20:04.519Z,56.10
2022-10-14T03:21:04.493Z,59.30
2022-10-14T03:22:04.480Z,73.30
2022-10-14T03:23:04.469Z,73.70
2022-10-14T03:24:04.450Z,64.90
2022-10-14T03:25:04.476Z,66.90
2022-10-14T03:26:04.441Z,78.80
2022-10-14T03:27:04.423Z,60.20
2022-10-14T03:28:04.405Z,79.20
2022-10-14T03:29:04.402Z,83.60
2022-10-14T03:30:04.405Z,79.20
2022-10-14T03:31:04.407Z,69.20
2022-10-14T03:32:04.381Z,66.70
2022-10-14T03:33:04.357Z,58.70
2022-10-14T03:34:04.338Z,54.20
2022-10-14T03:35:04.369Z,69.40
2022-10-14T03:36:04.320Z,66.00
2022-10-14T03:37:04.298Z,68.20
2022-10-14T03:38:04.293Z,69.70
2022-10-14T03:39:04.289Z,59.30
2022-10-14T03:40:04.300Z,63.70
2022-10-14T03:41:04.259Z,63.90
2022-10-14T03:42:04.249Z,59.00
2022-10-14T03:43:04.239Z,55.40
2022-10-14T03:44:04.242Z,55.80
2022-10-14T03:45:04.248Z,60.40
2022-10-14T03:46:04.222Z,61.70
2022-10-14T03:47:04.202Z,75.50
2022-10-14T03:48:04.179Z,69.80
2022-10-14T03:49:04.174Z,58.50
2022-10-14T03:50:04.207Z,75.00
2022-10-14T03:51:04.150Z,56.20
2022-10-14T03:52:04.151Z,67.80
2022-10-14T03:53:04.134Z,50.80
2022-10-14T03:54:04.111Z,58.40
2022-10-14T03:55:04.121Z,103.20
2022-10-14T03:56:04.088Z,76.00
2022-10-14T03:57:04.074Z,67.00
2022-10-14T03:58:04.079Z,63.80
2022-10-14T03:59:04.068Z,79.40
2022-10-14T04:00:04.074Z,70.90
2022-10-14T04:01:04.035Z,65.40
2022-10-14T04:02:04.067Z,58.70
2022-10-14T04:03:04.010Z,64.10
2022-10-14T04:04:04.006Z,54.70
2022-10-14T04:05:04.033Z,63.80
2022-10-14T04:06:03.996Z,67.50
2022-10-14T04:07:03.965Z,61.20
2022-10-14T04:08:03.959Z,60.70
2022-10-14T04:09:03.952Z,52.90
2022-10-14T04:10:03.965Z,62.40
2022-10-14T04:11:03.954Z,65.90
2022-10-14T04:12:03.908Z,56.40
2022-10-14T04:13:03.923Z,58.20
2022-10-14T04:14:03.889Z,62.30
2022-10-14T04:15:03.888Z,66.70
2022-10-14T04:16:03.893Z,57.70
2022-10-14T04:17:03.855Z,63.10
2022-10-14T04:18:03.850Z,60.00
2022-10-14T04:19:03.840Z,70.10
2022-10-14T04:20:03.826Z,65.90
2022-10-14T04:21:03.827Z,74.70
2022-10-14T04:22:03.813Z,78.50
2022-10-14T04:23:03.787Z,60.10
2022-10-14T04:24:08.249Z,63.20
2022-10-14T04:25:03.791Z,59.90
2022-10-14T04:26:03.785Z,55.30
2022-10-14T04:27:03.755Z,63.50
2022-10-14T04:28:03.734Z,60.70
2022-10-14T04:29:03.745Z,56.10
2022-10-14T04:30:03.718Z,55.30
2022-10-14T04:31:03.723Z,62.30
2022-10-14T04:32:03.703Z,57.70
2022-10-14T04:33:03.679Z,56.10
2022-10-14T04:34:03.675Z,58.00
2022-10-14T04:35:03.651Z,60.00
2022-10-14T04:36:03.692Z,66.10
2022-10-14T04:37:03.632Z,73.80
2022-10-14T04:38:03.627Z,61.80
2022-10-14T04:39:03.615Z,73.30
2022-10-14T04:40:03.603Z,55.20
2022-10-14T04:41:03.618Z,70.00
2022-10-14T04:42:03.582Z,65.40
2022-10-14T04:43:03.563Z,62.90
2022-10-14T04:44:03.564Z,61.60
2022-10-14T04:45:03.552Z,68.80
2022-10-14T04:46:03.559Z,65.90
2022-10-14T04:47:03.521Z,74.70
2022-10-14T04:48:03.510Z,72.00
2022-10-14T04:49:03.521Z,66.30
2022-10-14T04:50:03.480Z,104.80
2022-10-14T04:51:03.504Z,68.70
2022-10-14T04:52:03.484Z,57.60
2022-10-14T04:53:03.462Z,63.00
2022-10-14T04:54:03.445Z,70.30
2022-10-14T04:55:03.440Z,72.20
2022-10-14T04:56:03.437Z,73.40
2022-10-14T04:57:03.417Z,59.80
2022-10-14T04:58:03.395Z,78.90
2022-10-14T04:59:03.396Z,87.20
2022-10-14T05:00:03.385Z,92.60
2022-10-14T05:01:03.393Z,63.90
2022-10-14T05:02:03.410Z,58.70
2022-10-14T05:03:03.351Z,45.70
2022-10-14T05:04:03.330Z,59.40
2022-10-14T05:05:03.328Z,71.10
2022-10-14T05:06:03.330Z,60.80
2022-10-14T05:07:03.303Z,66.10
2022-10-14T05:08:03.283Z,67.30
2022-10-14T05:09:03.296Z,65.10
2022-10-14T05:10:03.261Z,67.40
2022-10-14T05:11:03.289Z,57.70
2022-10-14T05:12:03.240Z,59.00
2022-10-14T05:13:03.240Z,56.90
2022-10-14T05:14:03.218Z,83.10
2022-10-14T05:15:03.230Z,56.30
2022-10-14T05:16:03.219Z,65.60
2022-10-14T05:17:03.203Z,65.40
2022-10-14T05:18:03.176Z,48.40
2022-10-14T05:19:03.179Z,57.30
2022-10-14T05:20:03.156Z,79.50
2022-10-14T05:21:03.192Z,85.10
2022-10-14T05:22:03.127Z,71.70
2022-10-14T05:23:03.143Z,86.10
2022-10-14T05:24:03.129Z,78.60
2022-10-14T05:25:03.108Z,69.80
2022-10-14T05:26:03.112Z,77.90
2022-10-14T05:27:03.073Z,75.90
2022-10-14T05:28:03.068Z,96.40
2022-10-14T05:29:03.063Z,85.20
2022-10-14T05:30:03.046Z,61.50
2022-10-14T05:31:03.057Z,77.20
2022-10-14T05:32:03.016Z,72.10
2022-10-14T05:33:03.009Z,68.80
2022-10-14T05:34:03.013Z,91.40
2022-10-14T05:35:03.080Z,73.20
2022-10-14T05:36:02.989Z,68.30
2022-10-14T05:37:02.972Z,82.90
2022-10-14T05:38:04.371Z,58.90
2022-10-14T05:39:02.942Z,72.00
2022-10-14T05:40:02.934Z,84.40
2022-10-14T05:41:02.942Z,74.40
2022-10-14T05:42:02.913Z,79.70
2022-10-14T05:43:02.887Z,67.00
2022-10-14T05:44:02.888Z,101.30
2022-10-14T05:45:02.877Z,85.90
2022-10-14T05:46:02.881Z,74.90
2022-10-14T05:47:02.847Z,58.90
2022-10-14T05:48:02.839Z,63.90
2022-10-14T05:49:02.834Z,80.20
2022-10-14T05:50:02.822Z,71.20
2022-10-14T05:51:02.818Z,84.50
2022-10-14T05:52:02.818Z,82.50
2022-10-14T05:53:02.778Z,75.50
2022-10-14T05:54:02.778Z,72.60
2022-10-14T05:55:02.764Z,93.00
2022-10-14T05:56:02.764Z,59.10
2022-10-14T05:57:02.949Z,95.10
2022-10-14T05:58:02.722Z,98.30
2022-10-14T05:59:02.733Z,74.30
2022-10-14T06:00:02.713Z,72.90
2022-10-14T06:01:02.715Z,115.80
2022-10-14T06:02:02.680Z,84.30
2022-10-14T06:03:02.730Z,75.10
2022-10-14T06:04:02.651Z,112.20
2022-10-14T06:05:02.662Z,80.90
2022-10-14T06:06:02.799Z,64.40
2022-10-14T06:07:02.654Z,87.70
2022-10-14T06:08:02.620Z,74.60
2022-10-14T06:09:03.974Z,80.20
2022-10-14T06:10:02.590Z,96.90
2022-10-14T06:11:02.595Z,133.90
2022-10-14T06:12:02.566Z,88.70
2022-10-14T06:13:02.559Z,125.40
2022-10-14T06:14:02.567Z,136.60
2022-10-14T06:15:02.537Z,99.20
2022-10-14T06:16:02.562Z,140.10
2022-10-14T06:17:02.508Z,102.90
2022-10-14T06:18:02.507Z,127.40
2022-10-14T06:19:02.485Z,129.40
2022-10-14T06:20:02.481Z,100.70
2022-10-14T06:21:02.480Z,119.20
2022-10-14T06:22:02.463Z,90.30
2022-10-14T06:23:02.465Z,78.00
2022-10-14T06:24:02.435Z,90.90
2022-10-14T06:25:04.411Z,125.50
2022-10-14T06:26:02.455Z,132.70
2022-10-14T06:27:02.396Z,132.90
2022-10-14T06:28:02.398Z,120.10
2022-10-14T06:29:02.431Z,131.20
2022-10-14T06:30:02.377Z,142.70
2022-10-14T06:31:02.373Z,186.60
2022-10-14T06:32:02.422Z,213.80
2022-10-14T06:33:02.327Z,134.80
2022-10-14T06:34:02.316Z,112.40
2022-10-14T06:35:02.316Z,146.30
2022-10-14T06:36:02.321Z,149.90
2022-10-14T06:37:02.684Z,120.40
2022-10-14T06:38:02.258Z,190.70
2022-10-14T06:39:02.259Z,133.20
2022-10-14T06:40:02.253Z,140.60
2022-10-14T06:41:02.271Z,109.20
2022-10-14T06:42:02.218Z,179.80
2022-10-14T06:43:02.202Z,117.20
2022-10-14T06:44:02.304Z,134.30
2022-10-14T06:45:02.225Z,149.20
2022-10-14T06:46:02.203Z,141.80
2022-10-14T06:47:02.173Z,139.50
2022-10-14T06:48:02.162Z,146.20
2022-10-14T06:49:02.151Z,172.50
2022-10-14T06:50:02.139Z,137.40
2022-10-14T06:51:02.170Z,166.00
2022-10-14T06:52:02.120Z,127.30
2022-10-14T06:53:02.098Z,139.20
2022-10-14T06:54:02.096Z,163.20
2022-10-14T06:55:02.076Z,154.50
2022-10-14T06:56:02.102Z,142.40
2022-10-14T06:57:02.062Z,124.10
2022-10-14T06:58:02.113Z,119.70
2022-10-14T06:59:02.076Z,140.40
2022-10-14T07:00:02.036Z,124.70
2022-10-14T07:01:02.068Z,156.60
2022-10-14T07:02:02.097Z,105.10
2022-10-14T07:03:02.041Z,120.70
2022-10-14T07:04:01.996Z,133.70
2022-10-14T07:05:01.970Z,123.10
2022-10-14T07:06:02.003Z,138.50
2022-10-14T07:07:01.951Z,129.40
2022-10-14T07:08:01.984Z,121.10
2022-10-14T07:09:01.920Z,112.50
2022-10-14T07:10:01.914Z,111.20
2022-10-14T07:11:01.918Z,103.90
2022-10-14T07:12:01.910Z,121.60
2022-10-14T07:13:01.934Z,118.40
2022-10-14T07:14:01.871Z,127.00
2022-10-14T07:15:01.891Z,118.60
2022-10-14T07:16:01.860Z,115.00
2022-10-14T07:17:01.914Z,104.10
2022-10-14T07:18:01.819Z,129.70
2022-10-14T07:19:01.849Z,138.30
2022-10-14T07:20:01.799Z,123.00
2022-10-14T07:21:01.811Z,143.10
2022-10-14T07:22:01.779Z,118.90
2022-10-14T07:23:01.768Z,128.90
2022-10-14T07:24:01.751Z,124.80
2022-10-14T07:25:01.740Z,111.40
2022-10-14T07:26:01.770Z,136.40
2022-10-14T07:28:01.695Z,103.80
2022-10-14T07:29:01.737Z,108.20
2022-10-14T07:30:01.723Z,112.50
2022-10-14T07:31:01.718Z,105.30
2022-10-14T07:32:01.672Z,104.90
2022-10-14T07:33:01.646Z,111.00
2022-10-14T07:34:01.660Z,106.40
2022-10-14T07:35:01.643Z,100.50
2022-10-14T07:36:01.644Z,98.90
2022-10-14T07:37:01.600Z,92.60
2022-10-14T07:38:01.594Z,94.00
2022-10-14T07:39:01.571Z,98.50
2022-10-14T07:40:01.577Z,88.20
2022-10-14T07:41:01.585Z,84.90
2022-10-14T07:42:01.548Z,90.00
2022-10-14T07:43:01.534Z,104.00
2022-10-14T07:44:01.533Z,93.80
2022-10-14T07:45:01.512Z,103.20
2022-10-14T07:46:01.525Z,103.60
2022-10-14T07:47:01.491Z,106.90
2022-10-14T07:48:01.493Z,106.90
2022-10-14T07:49:01.487Z,88.30
2022-10-14T07:50:01.466Z,103.90
2022-10-14T07:51:01.477Z,99.70
2022-10-14T07:52:01.434Z,98.90
2022-10-14T07:53:01.758Z,80.50
2022-10-14T07:54:01.417Z,90.70
2022-10-14T07:55:01.401Z,88.50
2022-10-14T07:56:01.413Z,83.20
2022-10-14T07:57:01.413Z,95.30
2022-10-14T07:58:01.376Z,80.00
2022-10-14T07:59:01.380Z,79.40
2022-10-14T08:00:01.350Z,85.10
2022-10-14T08:01:01.353Z,72.80
2022-10-14T08:02:01.414Z,86.40
2022-10-14T08:03:01.326Z,76.70
2022-10-14T08:04:01.311Z,83.10
2022-10-14T08:05:25.687Z,77.80
2022-10-14T08:06:01.309Z,73.70
2022-10-14T08:07:01.288Z,72.60
2022-10-14T08:08:01.259Z,69.70
2022-10-14T08:09:01.260Z,70.90
2022-10-14T08:10:01.233Z,73.10
2022-10-14T08:11:01.248Z,64.40
2022-10-14T08:12:01.208Z,61.40
2022-10-14T08:13:01.497Z,63.70
2022-10-14T08:14:01.440Z,67.80
2022-10-14T08:15:01.923Z,67.70
2022-10-14T08:16:01.678Z,67.10
2022-10-14T08:17:01.398Z,62.70
2022-10-14T08:18:01.720Z,58.30
2022-10-14T08:19:01.926Z,61.10
2022-10-14T08:20:01.382Z,66.80
2022-10-14T08:21:01.705Z,65.40
2022-10-14T08:22:02.234Z,58.40
2022-10-14T08:23:01.106Z,58.50
2022-10-14T08:24:01.086Z,59.50
2022-10-14T08:25:02.007Z,53.80
2022-10-14T08:26:01.245Z,60.50
2022-10-14T08:27:01.067Z,53.40
2022-10-14T08:28:01.039Z,55.20
2022-10-14T08:29:01.030Z,55.10
2022-10-14T08:30:01.044Z,58.80
2022-10-14T08:31:01.023Z,49.00
2022-10-14T08:32:01.012Z,53.40
2022-10-14T08:33:00.986Z,47.60
2022-10-14T08:34:00.979Z,43.90
2022-10-14T08:35:00.962Z,48.80
2022-10-14T08:36:00.946Z,42.70
2022-10-14T08:37:00.955Z,40.60
2022-10-14T08:38:01.036Z,44.70
2022-10-14T08:39:01.238Z,41.10
2022-10-14T08:40:01.274Z,38.90
2022-10-14T08:41:01.200Z,40.90
2022-10-14T08:42:01.080Z,37.00
2022-10-14T08:43:01.047Z,42.50
2022-10-14T08:44:00.877Z,31.80
2022-10-14T08:45:00.864Z,32.50
2022-10-14T08:46:01.153Z,31.00
2022-10-14T08:47:00.860Z,32.40
2022-10-14T08:48:00.810Z,31.70
2022-10-14T08:49:00.866Z,30.30
2022-10-14T08:50:00.792Z,29.40
2022-10-14T08:51:00.785Z,30.20
2022-10-14T08:52:00.801Z,26.30
2022-10-14T08:53:00.766Z,26.10
2022-10-14T08:54:00.781Z,24.30
2022-10-14T08:55:00.743Z,22.20
2022-10-14T08:56:00.725Z,21.10
2022-10-14T08:57:00.777Z,22.10
2022-10-14T08:58:00.764Z,21.80
2022-10-14T08:59:00.723Z,23.00
2022-10-14T09:00:00.690Z,21.20
2022-10-14T09:01:00.670Z,20.80
2022-10-14T09:02:00.682Z,21.90
2022-10-14T09:03:00.715Z,21.80
2022-10-14T09:04:00.696Z,20.40
2022-10-14T09:05:00.628Z,20.50
2022-10-14T09:06:00.622Z,21.00
2022-10-14T09:07:00.623Z,20.00
2022-10-14T09:08:00.604Z,19.40
2022-10-14T09:09:00.568Z,18.00
2022-10-14T09:10:00.567Z,19.50
2022-10-14T09:11:00.564Z,19.70
2022-10-14T09:12:00.572Z,17.90
2022-10-14T09:13:00.532Z,20.60
2022-10-14T09:14:00.534Z,19.00
2022-10-14T09:15:00.520Z,17.90
2022-10-14T09:16:00.523Z,18.20
2022-10-14T09:17:00.552Z,17.70
2022-10-14T09:18:00.529Z,18.30
2022-10-14T09:19:00.476Z,18.00
2022-10-14T09:20:00.483Z,16.10
2022-10-14T09:21:00.459Z,17.30
2022-10-14T09:22:00.473Z,16.30
2022-10-14T09:23:00.417Z,17.70
2022-10-14T09:24:00.416Z,16.80
2022-10-14T09:25:00.400Z,16.30
2022-10-14T09:26:00.408Z,15.70
2022-10-14T09:27:00.395Z,16.00
2022-10-14T09:28:00.384Z,15.00
2022-10-14T09:29:00.490Z,14.60
2022-10-14T09:30:00.339Z,14.00
2022-10-14T09:31:00.356Z,14.10
2022-10-14T09:32:00.338Z,14.60
2022-10-14T09:33:00.300Z,14.00
2022-10-14T09:34:00.349Z,13.70
2022-10-14T09:35:00.284Z,13.00
2022-10-14T09:36:00.471Z,12.70
2022-10-14T09:37:00.319Z,12.90
2022-10-14T09:38:00.263Z,13.00
2022-10-14T09:39:03.834Z,12.30
2022-10-14T09:40:00.248Z,12.20
2022-10-14T09:41:00.218Z,11.70
2022-10-14T09:42:00.237Z,12.00
2022-10-14T09:43:00.213Z,11.40
2022-10-14T09:44:00.189Z,12.00
2022-10-14T09:45:00.252Z,11.90
2022-10-14T09:46:00.189Z,11.80
2022-10-14T09:47:00.170Z,11.20
2022-10-14T09:48:00.152Z,12.60
2022-10-14T09:49:00.175Z,10.60
2022-10-14T09:50:00.124Z,10.20
2022-10-14T09:51:00.134Z,9.80
2022-10-14T09:52:00.120Z,10.00
2022-10-14T09:53:00.098Z,10.60
2022-10-14T09:54:00.183Z,11.50
2022-10-14T09:55:00.089Z,10.90
2022-10-14T09:56:00.048Z,9.80
2022-10-14T09:57:00.073Z,11.50
2022-10-14T09:58:00.032Z,9.20
2022-10-14T09:59:00.037Z,9.60
2022-10-14T10:00:00.008Z,8.90
2022-10-14T10:01:00.004Z,8.90
2022-10-14T10:01:59.995Z,8.10
2022-10-14T10:02:59.981Z,8.50
2022-10-14T10:04:00.043Z,8.30
2022-10-14T10:04:59.954Z,8.60
2022-10-14T10:05:59.957Z,8.60
2022-10-14T10:06:59.974Z,8.20
2022-10-14T10:07:59.922Z,8.10
2022-10-14T10:08:59.921Z,8.40
2022-10-14T10:09:59.902Z,8.70
2022-10-14T10:11:03.673Z,7.90
2022-10-14T10:11:59.895Z,8.40
2022-10-14T10:12:59.867Z,8.00
2022-10-14T10:13:59.872Z,7.50
2022-10-14T10:14:59.857Z,7.00
2022-10-14T10:15:59.826Z,8.60
2022-10-14T10:16:59.840Z,6.80
2022-10-14T10:17:59.817Z,8.40
2022-10-14T10:18:59.795Z,7.10
2022-10-14T10:19:59.800Z,7.30
2022-10-14T10:20:59.774Z,7.40
2022-10-14T10:21:59.806Z,7.90
2022-10-14T10:22:59.774Z,9.00
2022-10-14T10:23:59.732Z,9.20
2022-10-14T10:24:59.761Z,7.20
2022-10-14T10:25:59.733Z,7.40
2022-10-14T10:26:59.749Z,7.50
2022-10-14T10:27:59.700Z,9.40
2022-10-14T10:28:59.791Z,8.10
2022-10-14T10:29:59.694Z,7.50
2022-10-14T10:30:59.697Z,7.60
2022-10-14T10:31:59.684Z,7.40
2022-10-14T10:32:59.645Z,7.40
2022-10-14T10:33:59.640Z,7.20
2022-10-14T10:34:59.643Z,8.20
2022-10-14T10:35:59.607Z,8.20
2022-10-14T10:36:59.633Z,7.70
2022-10-14T10:37:59.601Z,8.60
2022-10-14T10:38:59.590Z,8.40
2022-10-14T10:39:59.565Z,8.50
2022-10-14T10:40:59.560Z,7.90
2022-10-14T10:41:59.572Z,8.30
2022-10-14T10:42:59.541Z,8.20
2022-10-14T10:43:59.535Z,8.00
2022-10-14T10:44:59.535Z,8.50
2022-10-14T10:45:59.506Z,8.70
2022-10-14T10:46:59.546Z,9.10
2022-10-14T10:47:59.488Z,8.90
2022-10-14T10:48:59.471Z,9.00
2022-10-14T10:49:59.468Z,9.10
2022-10-14T10:50:59.475Z,8.20
2022-10-14T10:51:59.457Z,9.40
2022-10-14T10:52:59.431Z,9.10
2022-10-14T10:53:59.404Z,9.20
2022-10-14T10:54:59.395Z,9.90
2022-10-14T10:55:59.382Z,9.70
2022-10-14T10:56:59.404Z,9.40
2022-10-14T10:57:59.367Z,10.20
2022-10-14T10:58:59.364Z,9.70
2022-10-14T10:59:59.343Z,11.10
2022-10-14T11:00:59.349Z,10.20
2022-10-14T11:01:59.345Z,10.10
2022-10-14T11:02:59.318Z,9.30
2022-10-14T11:03:59.299Z,9.90
2022-10-14T11:04:59.485Z,10.30
2022-10-14T11:05:59.278Z,9.90
2022-10-14T11:06:59.293Z,10.40
2022-10-14T11:07:59.265Z,10.60
2022-10-14T11:08:59.254Z,10.90
2022-10-14T11:09:59.225Z,10.60
2022-10-14T11:10:59.226Z,9.80
2022-10-14T11:11:59.258Z,10.60
2022-10-14T11:12:59.234Z,10.60
2022-10-14T11:13:59.200Z,11.00
2022-10-14T11:14:59.174Z,10.70
2022-10-14T11:15:59.172Z,11.10
2022-10-14T11:16:59.179Z,11.30
2022-10-14T11:17:59.149Z,11.00
2022-10-14T11:18:59.163Z,9.80
2022-10-14T11:19:59.150Z,10.90
2022-10-14T11:20:59.126Z,10.80
2022-10-14T11:21:59.134Z,10.20
2022-10-14T11:22:59.125Z,10.20
2022-10-14T11:23:59.086Z,10.40
2022-10-14T11:24:59.081Z,9.90
2022-10-14T11:25:59.066Z,9.50
2022-10-14T11:26:59.076Z,10.00
2022-10-14T11:27:59.032Z,9.80
2022-10-14T11:28:59.110Z,9.50
2022-10-14T11:29:59.024Z,9.00
2022-10-14T11:30:59.026Z,9.60
2022-10-14T11:31:59.041Z,9.80
2022-10-14T11:32:58.992Z,9.50
2022-10-14T11:33:59.031Z,8.20
2022-10-14T11:34:58.978Z,8.30
2022-10-14T11:35:58.981Z,9.00
2022-10-14T11:36:58.975Z,8.00
2022-10-14T11:37:58.931Z,8.30
2022-10-14T11:38:59.078Z,8.30
2022-10-14T11:39:58.901Z,8.40
2022-10-14T11:40:58.927Z,9.10
2022-10-14T11:41:58.907Z,9.50
2022-10-14T11:42:58.878Z,8.80
2022-10-14T11:43:58.864Z,8.90
2022-10-14T11:44:58.863Z,9.10
2022-10-14T11:45:58.851Z,8.70
2022-10-14T11:46:58.875Z,9.00
2022-10-14T11:47:58.823Z,9.00
2022-10-14T11:48:58.812Z,9.00
2022-10-14T11:49:58.803Z,8.50
2022-10-14T11:50:58.778Z,9.00
2022-10-14T11:51:58.797Z,9.60
2022-10-14T11:52:58.762Z,8.90
2022-10-14T11:53:58.761Z,9.20
2022-10-14T11:54:58.740Z,9.00
2022-10-14T11:55:58.744Z,9.10
2022-10-14T11:56:58.733Z,7.90
2022-10-14T11:57:58.706Z,9.20
2022-10-14T11:58:58.702Z,11.40
2022-10-14T11:59:58.684Z,9.30
2022-10-14T12:00:58.674Z,8.10
2022-10-14T12:01:58.692Z,8.80
2022-10-14T12:02:58.718Z,8.70
2022-10-14T12:03:58.646Z,8.20
2022-10-14T12:04:58.642Z,8.30
2022-10-14T12:05:58.617Z,9.30
2022-10-14T12:06:58.627Z,8.20
2022-10-14T12:07:58.600Z,8.60
2022-10-14T12:08:58.586Z,7.50
2022-10-14T12:09:59.960Z,7.30
2022-10-14T12:10:58.569Z,8.00
2022-10-14T12:11:58.570Z,7.80
2022-10-14T12:12:58.548Z,7.70
2022-10-14T12:13:58.536Z,7.70
2022-10-14T12:14:58.526Z,7.50
2022-10-14T12:15:58.541Z,7.80
2022-10-14T12:16:58.512Z,7.20
2022-10-14T12:17:58.491Z,7.40
2022-10-14T12:18:58.476Z,7.20
2022-10-14T12:19:58.471Z,6.60
2022-10-14T12:20:58.450Z,6.60
2022-10-14T12:21:58.461Z,6.50
2022-10-14T12:22:58.427Z,6.00
2022-10-14T12:23:58.425Z,5.10
2022-10-14T12:24:58.411Z,5.10
2022-10-14T12:25:58.397Z,5.80
2022-10-14T12:26:58.415Z,4.60
2022-10-14T12:27:58.394Z,4.60
2022-10-14T12:29:00.074Z,4.70
2022-10-14T12:29:58.385Z,4.40
2022-10-14T12:30:58.345Z,4.50
2022-10-14T12:31:58.388Z,6.60
2022-10-14T12:32:58.321Z,5.30
2022-10-14T12:33:58.316Z,4.40
2022-10-14T12:34:58.302Z,5.40
2022-10-14T12:35:58.300Z,4.70
2022-10-14T12:36:58.304Z,4.60
2022-10-14T12:38:58.250Z,4.40
2022-10-14T12:39:58.250Z,5.30
2022-10-14T12:40:58.236Z,4.20
2022-10-14T12:41:58.511Z,4.20
2022-10-14T12:42:58.216Z,7.10
2022-10-14T12:43:58.195Z,4.20
2022-10-14T12:44:58.182Z,5.30
2022-10-14T12:45:58.192Z,4.10
2022-10-14T12:46:58.177Z,4.40
2022-10-14T12:47:58.180Z,4.20
2022-10-14T12:48:58.140Z,5.10
2022-10-14T12:49:58.128Z,3.50
2022-10-14T12:50:58.121Z,4.10
2022-10-14T12:51:58.116Z,3.00
2022-10-14T12:52:58.121Z,4.10
2022-10-14T12:53:58.106Z,3.30
2022-10-14T12:54:58.085Z,5.00
2022-10-14T12:55:58.191Z,2.80